Evanston Uinta County Burns Field
KEVW : rendu visible

Aérodrome :











RETROUVEZ-NOUS SUR...

 
LOGIN :

S'inscrire | Disclaimer

   EN    FR    IT 

 









Légende :    VFR   VFR Marginal   IFR   IFR Intensif   IFR Très Intensif
Visi : 
Plafond : 
>= 8 km
>= 3000ft
5 à 8 km
1000 à 3000 ft
1500m à 5 km
500 à 1000 ft
800 à 1500m
200 à 500 ft
< 800m
< 200 ft
Symboles :   Orages  Brouillard  Fortes neiges  Fortes précipitations  Vent > 20 kt






- Altitude de l'aérodrome : 7143 ft


KEVW - Evanston Uinta County Burns Field

DERNIER METAR :
  • 150653Z AUTO 15006KT 10SM CLR 03/M06 A3024 RMK AO2 SLP201 T00331061 401331022

METARs EXPIRÉS :
  • 150553Z AUTO 14003KT 10SM CLR 04/M07 A3024 RMK AO2 SLP205 T00391067 10089 20028 58000
  • 150453Z AUTO 14004KT 10SM CLR 04/M06 A3024 RMK AO2 SLP213 T00441061

TAF KEVW
Valide du 15 à 06h jusqu'au 16 à 06h UTC


150525Z 1506/1606 17005KT P6SM BKN200
FM151800 23010KT P6SM BKN200
FM160300 25006KT P6SM SCT080 BKN150



MET'MAP, la Météo Aéronautique d'un coup d'oeil ! - Copyright ORBIFLY Décembre 2007 - Disclaimer

ORBIFLY MET'MAP TEAM :

Programmation & Développement : Alexandra Zaïnal
Conception & Développement : Baudouin d'Aumeries
Co-Programmation & Développement : Marc-Olivier Méhu
Soutien technique & logistique : Manuel Goepfert

Contact : metmap@orbifly.com




SOURCES & CREDITS :

   NOAA       Earth
Advisory